Macedonia, Ohio
Current Conditions -  °F | °C
As of 12:21 PM on Thursday 27 Nov 2014 (Local Time) from KPOV Reporting Station
Light Snow Light Snow  
Wind Chill: 23°   Ceiling: 1300
Heat Index: 30°   Visibility: 7mi
Dew Point: 30°   Wind: 8mph
Humidity: 100%   Direction: 290°WNW
Pressure: 30.1"   Gusts: NA
Location:  41.31°N, 81.5°W
Report Text: KPOV 271721Z AUTO 29007KT 7SM -SN OVC013 M01/M01 A3010 RMK AO2 T10101010
Loading
Personal Weather Stations






























Interactive Weather Map New forecast layout! Learn more

10-Day Weather Forecast

Advertisements
Track Severe Weather on mobile